Time;durP1;ratioP1;P1;durP2;ratioP2;P2;SDS_P1;SDS_P2;PMS_P1;PMS_P2;Temp;Humidity;BMP_temperature;BMP_pressure;BME280_temperature;BME280_humidity;BME280_pressure;Samples;Min_cycle;Max_cycle;Signal;HPM_P1;HPM_P2
2021/10/06 00:01:55;;;;;;;10.63;9.40;;;13.10;99.90;;;;;;5096551;28;20491;-71
2021/10/06 00:04:22;;;;;;;11.07;8.73;;;13.10;99.90;;;;;;5096160;28;20464;-71
2021/10/06 00:06:48;;;;;;;8.97;8.13;;;13.10;99.90;;;;;;5096354;28;20765;-70
2021/10/06 00:09:15;;;;;;;8.53;7.67;;;13.10;99.90;;;;;;5096510;28;20457;-71
2021/10/06 00:11:42;;;;;;;9.10;8.20;;;13.10;99.90;;;;;;5096009;28;20943;-71
2021/10/06 00:14:10;;;;;;;9.63;8.10;;;13.20;99.90;;;;;;5096076;28;20466;-70
2021/10/06 00:16:38;;;;;;;8.63;6.87;;;13.20;99.90;;;;;;5096091;28;20464;-71
2021/10/06 00:19:06;;;;;;;10.63;7.93;;;13.20;99.90;;;;;;5096029;28;20480;-71
2021/10/06 00:21:34;;;;;;;8.87;7.97;;;13.20;99.90;;;;;;5095938;28;20462;-71
2021/10/06 00:24:00;;;;;;;8.47;7.67;;;13.20;99.90;;;;;;5095732;28;20446;-71
2021/10/06 00:26:27;;;;;;;9.40;7.50;;;13.20;99.90;;;;;;5096049;28;20466;-71
2021/10/06 00:28:54;;;;;;;8.80;8.00;;;13.20;99.90;;;;;;5095931;28;20977;-71
2021/10/06 00:31:21;;;;;;;10.73;7.47;;;13.20;99.90;;;;;;5095713;28;20462;-71
2021/10/06 00:33:49;;;;;;;9.23;7.67;;;13.20;99.90;;;;;;5095943;28;20468;-71
2021/10/06 00:36:15;;;;;;;8.13;7.33;;;13.20;99.90;;;;;;5095971;28;20466;-71
2021/10/06 00:38:42;;;;;;;8.47;7.67;;;13.10;99.90;;;;;;5095736;28;20505;-71
2021/10/06 00:41:09;;;;;;;9.17;7.40;;;13.10;99.90;;;;;;5095826;28;20459;-71
2021/10/06 00:43:36;;;;;;;8.30;7.20;;;13.00;99.90;;;;;;5095343;28;20927;-71
2021/10/06 00:46:03;;;;;;;9.33;7.43;;;13.00;99.90;;;;;;5095731;28;20457;-71
2021/10/06 00:48:30;;;;;;;9.03;7.30;;;13.00;99.90;;;;;;5095078;28;20454;-71
2021/10/06 00:50:58;;;;;;;9.27;7.27;;;13.00;99.90;;;;;;5095397;28;20521;-71
2021/10/06 00:53:25;;;;;;;10.67;6.30;;;13.00;99.90;;;;;;5095636;28;20463;-71
2021/10/06 00:55:52;;;;;;;7.80;7.00;;;13.00;99.90;;;;;;5095051;28;20458;-71
2021/10/06 00:58:19;;;;;;;8.33;7.23;;;13.00;99.90;;;;;;5095661;28;20550;-71
2021/10/06 01:00:46;;;;;;;7.33;6.60;;;12.90;99.90;;;;;;5094823;28;20468;-71
2021/10/06 01:03:13;;;;;;;7.67;6.97;;;13.00;99.90;;;;;;5095272;28;20532;-71
2021/10/06 01:05:40;;;;;;;7.90;6.60;;;12.90;99.90;;;;;;5094874;28;20522;-71
2021/10/06 01:08:08;;;;;;;7.47;6.73;;;12.90;99.90;;;;;;5094929;28;20453;-71
2021/10/06 01:10:35;;;;;;;7.20;6.50;;;12.90;99.90;;;;;;5094827;28;20468;-71
2021/10/06 01:13:02;;;;;;;8.10;6.50;;;12.80;99.90;;;;;;5095218;28;20465;-71
2021/10/06 01:15:29;;;;;;;7.60;6.80;;;12.80;99.90;;;;;;5094872;28;20468;-71
2021/10/06 01:17:56;;;;;;;6.93;6.33;;;12.80;99.90;;;;;;5095013;28;20489;-71
2021/10/06 01:20:23;;;;;;;7.50;6.70;;;12.80;99.90;;;;;;5094539;28;20456;-71
2021/10/06 01:22:51;;;;;;;7.37;6.67;;;12.80;99.90;;;;;;5094953;28;20486;-71
2021/10/06 01:25:18;;;;;;;7.87;6.23;;;12.90;99.90;;;;;;5094611;28;20458;-71
2021/10/06 01:27:45;;;;;;;8.93;6.77;;;12.90;99.90;;;;;;5094306;28;20454;-71
2021/10/06 01:30:14;;;;;;;8.10;7.10;;;13.00;99.90;;;;;;5095638;28;20467;-71
2021/10/06 01:32:43;;;;;;;7.30;6.60;;;12.90;99.90;;;;;;5095192;28;20465;-71
2021/10/06 01:35:12;;;;;;;8.10;7.13;;;13.00;99.90;;;;;;5096116;28;20488;-71
2021/10/06 01:37:40;;;;;;;8.87;7.07;;;13.00;99.90;;;;;;5095073;28;20455;-71
2021/10/06 01:40:11;;;;;;;7.97;7.17;;;13.10;99.90;;;;;;5095012;28;20458;-71
2021/10/06 01:42:38;;;;;;;7.33;6.63;;;13.10;99.90;;;;;;5094703;28;20454;-71
2021/10/06 01:45:06;;;;;;;8.90;6.87;;;13.10;99.90;;;;;;5094804;28;20467;-71
2021/10/06 01:47:33;;;;;;;12.23;7.57;;;13.20;99.90;;;;;;5094706;28;20465;-71
2021/10/06 01:50:00;;;;;;;7.70;6.67;;;13.10;99.90;;;;;;5094696;28;20919;-71
2021/10/06 01:52:26;;;;;;;7.60;6.80;;;13.10;99.90;;;;;;5094304;28;20487;-71
2021/10/06 01:54:53;;;;;;;6.97;6.27;;;13.10;99.90;;;;;;5096906;28;20470;-70
2021/10/06 01:57:22;;;;;;;9.80;7.40;;;13.10;99.90;;;;;;5099045;28;20527;-70
2021/10/06 01:59:49;;;;;;;7.50;6.70;;;13.10;99.90;;;;;;5098407;28;20482;-70
2021/10/06 02:02:19;;;;;;;7.10;6.30;;;13.20;99.90;;;;;;5098598;28;20459;-70
2021/10/06 02:04:45;;;;;;;7.20;6.40;;;13.20;99.90;;;;;;5098710;28;20471;-71
2021/10/06 02:07:12;;;;;;;6.30;5.70;;;13.30;99.90;;;;;;5098452;28;20468;-71
2021/10/06 02:09:39;;;;;;;6.73;6.03;;;13.20;99.90;;;;;;5098626;28;20463;-71
2021/10/06 02:12:06;;;;;;;7.00;5.80;;;13.20;99.90;;;;;;5098301;28;20993;-71
2021/10/06 02:14:34;;;;;;;6.63;6.00;;;13.30;99.90;;;;;;5098333;28;20459;-71
2021/10/06 02:17:01;;;;;;;7.00;6.20;;;13.20;99.90;;;;;;5098496;28;20461;-71
2021/10/06 02:19:27;;;;;;;6.77;6.17;;;13.30;99.90;;;;;;5098245;28;20502;-71
2021/10/06 02:21:54;;;;;;;6.73;6.10;;;13.30;99.90;;;;;;5098204;28;20500;-71
2021/10/06 02:24:21;;;;;;;6.80;5.83;;;13.30;99.90;;;;;;5098137;28;20464;-71
2021/10/06 02:26:48;;;;;;;7.37;6.17;;;13.30;99.90;;;;;;5098404;28;20948;-70
2021/10/06 02:29:15;;;;;;;7.23;6.53;;;13.30;99.90;;;;;;5097951;28;20450;-71
2021/10/06 02:31:43;;;;;;;9.23;6.43;;;13.30;99.90;;;;;;5097924;28;20969;-71
2021/10/06 02:34:09;;;;;;;6.33;5.70;;;13.30;99.90;;;;;;5098195;28;20452;-70
2021/10/06 02:36:36;;;;;;;7.20;6.50;;;13.30;99.90;;;;;;5098116;28;20854;-71
2021/10/06 02:39:04;;;;;;;6.47;5.93;;;13.30;99.90;;;;;;5098285;28;20485;-71
2021/10/06 02:41:30;;;;;;;6.67;6.10;;;13.30;99.90;;;;;;5097954;28;20466;-71
2021/10/06 02:43:57;;;;;;;6.03;5.43;;;13.30;99.90;;;;;;5098524;28;20464;-70
2021/10/06 02:46:24;;;;;;;6.13;5.53;;;13.30;99.90;;;;;;5097575;28;20523;-70
2021/10/06 02:48:52;;;;;;;6.43;5.83;;;13.30;99.90;;;;;;5097802;28;20461;-70
2021/10/06 02:51:19;;;;;;;7.37;5.57;;;13.30;99.90;;;;;;5097861;28;20857;-70
2021/10/06 02:53:45;;;;;;;6.07;5.47;;;13.40;99.90;;;;;;5097324;28;20600;-71
2021/10/06 02:56:12;;;;;;;6.30;5.70;;;13.40;99.90;;;;;;5097682;28;20780;-70
2021/10/06 02:58:39;;;;;;;6.00;5.50;;;13.40;99.90;;;;;;5097687;28;20486;-71
2021/10/06 03:01:05;;;;;;;6.40;5.77;;;13.50;99.90;;;;;;5097501;28;20579;-71
2021/10/06 03:03:32;;;;;;;6.27;5.67;;;13.50;99.90;;;;;;5097075;28;20457;-70
2021/10/06 03:06:00;;;;;;;6.80;6.03;;;13.50;99.90;;;;;;5097263;28;20523;-71
2021/10/06 03:08:27;;;;;;;6.83;6.10;;;13.50;99.90;;;;;;5097541;28;20923;-71
2021/10/06 03:10:53;;;;;;;5.83;5.30;;;13.50;99.90;;;;;;5097259;28;20946;-70
2021/10/06 03:13:20;;;;;;;6.00;5.50;;;13.50;99.90;;;;;;5097047;28;20469;-71
2021/10/06 03:15:54;;;;;;;6.43;5.47;;;13.50;99.90;;;;;;5097524;28;20784;-71
2021/10/06 03:18:20;;;;;;;7.17;6.23;;;13.50;99.90;;;;;;5096878;28;20473;-70
2021/10/06 03:20:47;;;;;;;8.17;5.90;;;13.60;99.90;;;;;;5097215;28;20471;-71
2021/10/06 03:23:15;;;;;;;6.80;5.70;;;13.60;99.90;;;;;;5097061;28;21018;-71
2021/10/06 03:25:42;;;;;;;7.90;6.13;;;13.60;99.90;;;;;;5096967;28;20888;-71
2021/10/06 03:28:09;;;;;;;7.30;5.77;;;13.60;99.90;;;;;;5096773;28;20470;-71
2021/10/06 03:30:35;;;;;;;6.93;6.27;;;13.60;99.90;;;;;;5097040;28;20469;-71
2021/10/06 03:33:03;;;;;;;6.20;5.60;;;13.60;99.90;;;;;;5097124;28;20760;-71
2021/10/06 03:35:29;;;;;;;6.70;5.67;;;13.60;99.90;;;;;;5097054;28;20466;-71
2021/10/06 03:37:56;;;;;;;6.83;5.63;;;13.60;99.90;;;;;;5096854;28;20878;-71
2021/10/06 03:40:25;;;;;;;7.30;6.60;;;13.60;99.90;;;;;;5096869;28;20576;-71
2021/10/06 03:42:51;;;;;;;9.03;6.57;;;13.60;99.90;;;;;;5096604;28;20458;-71
2021/10/06 03:45:19;;;;;;;6.90;6.20;;;13.60;99.90;;;;;;5096192;28;20916;-71
2021/10/06 03:47:45;;;;;;;6.40;5.80;;;13.60;99.90;;;;;;5096879;28;20461;-71
2021/10/06 03:50:14;;;;;;;6.27;5.73;;;13.60;99.90;;;;;;5096605;28;20455;-71
2021/10/06 03:52:40;;;;;;;7.97;5.47;;;13.50;99.90;;;;;;5096569;28;20452;-71
2021/10/06 03:55:09;;;;;;;6.57;5.97;;;13.50;99.90;;;;;;5096184;28;20579;-71
2021/10/06 03:57:39;;;;;;;6.80;5.93;;;13.60;99.90;;;;;;5096358;28;20461;-71
2021/10/06 04:00:10;;;;;;;7.17;6.47;;;13.50;99.90;;;;;;5096303;28;20506;-71
2021/10/06 04:02:37;;;;;;;7.07;6.37;;;13.50;99.90;;;;;;5096465;28;20834;-71
2021/10/06 04:05:05;;;;;;;7.17;5.70;;;13.50;99.90;;;;;;5096320;28;20467;-71
2021/10/06 04:07:32;;;;;;;6.97;6.30;;;13.50;99.90;;;;;;5096350;28;20468;-71
2021/10/06 04:09:59;;;;;;;6.70;6.07;;;13.50;99.90;;;;;;5096157;28;20465;-71
2021/10/06 04:12:26;;;;;;;7.17;6.47;;;13.50;99.90;;;;;;5096348;28;20458;-71
2021/10/06 04:14:54;;;;;;;7.13;6.30;;;13.50;99.90;;;;;;5096231;28;20841;-71
2021/10/06 04:17:21;;;;;;;8.13;6.50;;;13.50;99.90;;;;;;5095080;28;20461;-71
2021/10/06 04:19:49;;;;;;;7.30;6.60;;;13.50;99.90;;;;;;5096005;28;20489;-71
2021/10/06 04:22:16;;;;;;;8.90;7.77;;;13.50;99.90;;;;;;5095518;28;20537;-71
2021/10/06 04:24:43;;;;;;;9.90;6.50;;;13.50;99.90;;;;;;5095651;28;20917;-71
2021/10/06 04:27:10;;;;;;;11.10;7.00;;;13.40;99.90;;;;;;5095769;28;20450;-71
2021/10/06 04:29:37;;;;;;;6.23;5.63;;;13.50;99.90;;;;;;5095970;28;20456;-71
2021/10/06 04:32:06;;;;;;;6.93;6.23;;;13.40;99.90;;;;;;5095885;28;20456;-71
2021/10/06 04:34:33;;;;;;;11.40;7.07;;;13.50;99.90;;;;;;5095506;28;20520;-71
2021/10/06 04:36:59;;;;;;;7.10;6.40;;;13.50;99.90;;;;;;5095695;28;20477;-71
2021/10/06 04:39:26;;;;;;;8.10;7.30;;;13.40;99.90;;;;;;5095611;28;20509;-71
2021/10/06 04:41:53;;;;;;;7.23;6.53;;;13.30;99.90;;;;;;5095823;28;20766;-71
2021/10/06 04:44:19;;;;;;;6.97;6.37;;;13.30;99.90;;;;;;5095425;28;20469;-71
2021/10/06 04:46:47;;;;;;;17.00;7.60;;;13.40;99.90;;;;;;5095456;28;20459;-71
2021/10/06 04:49:16;;;;;;;6.60;6.00;;;13.40;99.90;;;;;;5095258;28;20862;-71
2021/10/06 04:51:43;;;;;;;7.57;6.60;;;13.40;99.90;;;;;;5094904;28;20455;-71
2021/10/06 04:54:09;;;;;;;6.97;6.37;;;13.50;99.90;;;;;;5095111;28;20463;-71
2021/10/06 04:56:36;;;;;;;7.63;6.93;;;13.50;99.90;;;;;;5095293;28;20457;-71
2021/10/06 04:59:03;;;;;;;6.93;6.33;;;13.50;99.90;;;;;;5095389;28;20838;-71
2021/10/06 05:01:30;;;;;;;9.47;7.70;;;13.50;99.90;;;;;;5095017;28;20455;-71
2021/10/06 05:03:59;;;;;;;8.30;5.57;;;13.50;99.90;;;;;;5095386;28;20457;-71
2021/10/06 05:06:30;;;;;;;6.73;6.10;;;13.50;99.90;;;;;;5094910;28;20779;-71
2021/10/06 05:08:57;;;;;;;6.37;5.80;;;13.50;99.90;;;;;;5095022;28;20824;-70
2021/10/06 05:11:24;;;;;;;6.20;5.60;;;13.50;99.90;;;;;;5095230;28;20940;-71
2021/10/06 05:13:51;;;;;;;10.17;6.07;;;13.50;99.90;;;;;;5095177;28;20470;-71
2021/10/06 05:16:18;;;;;;;5.77;5.27;;;13.50;99.90;;;;;;5094879;28;20473;-71
2021/10/06 05:18:45;;;;;;;6.27;5.67;;;13.50;99.90;;;;;;5095140;28;20466;-71
2021/10/06 05:21:11;;;;;;;10.07;6.93;;;13.50;99.90;;;;;;5094882;28;20466;-71
2021/10/06 05:23:42;;;;;;;9.33;5.60;;;13.50;99.90;;;;;;5094463;28;21013;-71
2021/10/06 05:26:09;;;;;;;6.60;5.43;;;13.40;99.90;;;;;;5094866;28;20438;-71
2021/10/06 05:28:36;;;;;;;9.10;6.47;;;13.40;99.90;;;;;;5094461;28;20929;-71
2021/10/06 05:31:03;;;;;;;6.33;5.60;;;13.40;99.90;;;;;;5094523;28;20465;-71
2021/10/06 05:33:29;;;;;;;6.07;5.50;;;13.30;99.90;;;;;;5095039;28;20455;-71
2021/10/06 05:35:56;;;;;;;6.83;5.30;;;13.30;99.90;;;;;;5094491;28;20558;-71
2021/10/06 05:38:23;;;;;;;7.23;6.10;;;13.30;99.90;;;;;;5095190;28;20470;-72
2021/10/06 05:40:51;;;;;;;6.90;5.50;;;13.30;99.90;;;;;;5094342;28;21041;-71
2021/10/06 05:43:18;;;;;;;6.17;5.50;;;13.20;99.90;;;;;;5094631;28;20461;-71
2021/10/06 05:45:45;;;;;;;7.50;6.20;;;13.20;99.90;;;;;;5094204;28;20458;-71
2021/10/06 05:48:13;;;;;;;7.13;6.10;;;13.10;99.90;;;;;;5094321;28;20455;-71
2021/10/06 05:50:40;;;;;;;7.00;5.97;;;13.10;99.90;;;;;;5094049;28;20458;-71
2021/10/06 05:53:07;;;;;;;8.43;6.43;;;13.10;99.90;;;;;;5094522;28;20465;-71
2021/10/06 05:55:34;;;;;;;8.97;6.53;;;13.10;99.90;;;;;;5094495;28;20914;-71
2021/10/06 05:58:02;;;;;;;7.50;5.77;;;13.10;99.90;;;;;;5094006;28;20469;-71
2021/10/06 06:00:29;;;;;;;9.13;5.50;;;13.10;99.90;;;;;;5094132;28;20482;-71
2021/10/06 06:02:58;;;;;;;6.17;5.67;;;13.10;99.90;;;;;;5094364;28;20736;-70
2021/10/06 06:05:25;;;;;;;7.37;5.63;;;13.00;99.90;;;;;;5094082;28;20565;-71
2021/10/06 06:07:52;;;;;;;5.40;4.90;;;13.00;99.90;;;;;;5094191;28;20466;-71
2021/10/06 06:10:18;;;;;;;9.50;5.90;;;13.00;99.90;;;;;;5094581;28;20450;-71
2021/10/06 06:12:46;;;;;;;5.90;5.40;;;13.10;99.90;;;;;;5094139;28;20923;-71
2021/10/06 06:15:14;;;;;;;7.10;5.20;;;13.10;99.90;;;;;;5094239;28;20461;-71
2021/10/06 06:17:41;;;;;;;6.33;5.70;;;13.10;99.90;;;;;;5094198;28;20485;-71
2021/10/06 06:20:14;;;;;;;7.13;6.00;;;13.10;99.90;;;;;;5094612;28;20473;-71
2021/10/06 06:22:41;;;;;;;5.90;4.90;;;13.10;99.90;;;;;;5094119;28;20897;-71
2021/10/06 06:25:10;;;;;;;7.00;5.90;;;13.10;99.90;;;;;;5094346;28;20768;-71
2021/10/06 06:27:37;;;;;;;7.47;6.53;;;13.10;99.90;;;;;;5094535;28;20469;-71
2021/10/06 06:30:05;;;;;;;7.03;6.00;;;13.10;99.90;;;;;;5094050;28;20456;-71
2021/10/06 06:32:33;;;;;;;5.93;5.43;;;13.10;99.90;;;;;;5094099;28;20458;-71
2021/10/06 06:35:00;;;;;;;6.80;5.90;;;13.10;99.90;;;;;;5094123;28;20481;-70
2021/10/06 06:37:26;;;;;;;6.20;5.60;;;13.10;99.90;;;;;;5093391;28;20926;-70
2021/10/06 06:39:53;;;;;;;7.30;5.50;;;13.10;99.90;;;;;;5094088;28;20501;-72
2021/10/06 06:42:20;;;;;;;7.03;6.30;;;13.10;99.90;;;;;;5097312;28;20956;-71
2021/10/06 06:44:54;;;;;;;5.37;4.67;;;13.10;99.90;;;;;;5097656;28;20463;-71
2021/10/06 06:47:21;;;;;;;7.00;5.17;;;13.20;99.90;;;;;;5097694;28;20465;-72
2021/10/06 06:49:49;;;;;;;5.67;4.00;;;13.20;99.90;;;;;;5097677;28;20450;-69
2021/10/06 06:52:15;;;;;;;6.27;4.23;;;13.20;99.90;;;;;;5097198;28;20461;-72
2021/10/06 06:54:42;;;;;;;7.07;4.30;;;13.20;99.90;;;;;;5097571;28;20469;-72
2021/10/06 06:57:09;;;;;;;6.37;4.43;;;13.30;99.90;;;;;;5096951;28;20458;-72
2021/10/06 06:59:36;;;;;;;4.70;4.30;;;13.30;99.90;;;;;;5097459;28;20564;-72
2021/10/06 07:02:03;;;;;;;7.53;4.23;;;13.30;99.90;;;;;;5096934;28;20496;-70
2021/10/06 07:04:29;;;;;;;4.63;3.50;;;13.30;99.90;;;;;;5096745;28;20475;-72
2021/10/06 07:06:58;;;;;;;3.97;3.60;;;13.30;99.90;;;;;;5097115;28;20518;-72
2021/10/06 07:09:25;;;;;;;4.43;3.77;;;13.30;99.90;;;;;;5097257;28;20974;-71
2021/10/06 07:11:52;;;;;;;3.60;3.30;;;13.40;99.90;;;;;;5096682;28;20463;-71
2021/10/06 07:14:19;;;;;;;4.33;3.43;;;13.40;99.90;;;;;;5096758;28;20920;-71
2021/10/06 07:16:47;;;;;;;7.10;3.63;;;13.50;99.90;;;;;;5097195;28;20926;-71
2021/10/06 07:19:14;;;;;;;3.10;2.77;;;13.50;99.90;;;;;;5097391;28;20519;-71
2021/10/06 07:21:44;;;;;;;3.37;3.07;;;13.50;99.90;;;;;;5097812;28;20454;-71
2021/10/06 07:24:13;;;;;;;6.83;3.00;;;13.60;99.90;;;;;;5097025;28;20446;-71
2021/10/06 07:26:40;;;;;;;5.20;3.00;;;13.60;99.90;;;;;;5096584;28;20454;-71
2021/10/06 07:29:07;;;;;;;5.77;3.00;;;13.60;99.90;;;;;;5096720;28;20467;-71
2021/10/06 07:31:34;;;;;;;8.20;4.73;;;13.60;99.90;;;;;;5096023;28;20483;-71
2021/10/06 07:34:02;;;;;;;6.23;2.67;;;13.70;99.90;;;;;;5096368;28;20469;-71
2021/10/06 07:36:29;;;;;;;4.93;2.90;;;13.70;99.90;;;;;;5096499;28;21040;-71
2021/10/06 07:38:57;;;;;;;4.67;2.80;;;13.70;99.90;;;;;;5096594;28;20468;-71
2021/10/06 07:41:25;;;;;;;4.60;2.80;;;13.70;99.90;;;;;;5096268;28;20481;-71
2021/10/06 07:43:52;;;;;;;5.87;3.00;;;13.80;99.90;;;;;;5097908;28;20453;-71
2021/10/06 07:46:19;;;;;;;2.40;2.20;;;13.80;99.90;;;;;;5096708;28;20856;-71
2021/10/06 07:48:45;;;;;;;4.33;2.57;;;13.80;99.90;;;;;;5096429;28;20958;-71
2021/10/06 07:51:13;;;;;;;4.40;2.40;;;13.80;99.90;;;;;;5095974;28;20460;-70
2021/10/06 07:53:39;;;;;;;4.90;2.77;;;13.80;99.90;;;;;;5095581;28;20470;-71
2021/10/06 07:56:06;;;;;;;3.43;2.30;;;13.90;99.90;;;;;;5096566;28;20453;-71
2021/10/06 07:58:37;;;;;;;4.53;2.60;;;13.90;99.90;;;;;;5096125;28;20463;-71
2021/10/06 08:01:04;;;;;;;3.63;2.20;;;14.00;99.90;;;;;;5096696;28;20491;-70
2021/10/06 08:03:31;;;;;;;1.97;1.80;;;14.00;99.90;;;;;;5096479;28;20472;-71
2021/10/06 08:05:58;;;;;;;3.10;1.73;;;14.00;99.90;;;;;;5095816;28;20460;-71
2021/10/06 08:08:27;;;;;;;3.97;2.30;;;14.10;99.90;;;;;;5096382;28;20458;-71
2021/10/06 08:10:54;;;;;;;3.27;2.20;;;14.10;99.90;;;;;;5096439;28;20453;-71
2021/10/06 08:13:21;;;;;;;1.90;1.70;;;14.20;99.90;;;;;;5096207;28;20468;-72
2021/10/06 08:15:49;;;;;;;2.70;1.93;;;14.20;99.90;;;;;;5095726;28;20495;-71
2021/10/06 08:18:16;;;;;;;2.63;1.90;;;14.20;99.90;;;;;;5095741;28;20459;-71
2021/10/06 08:20:43;;;;;;;2.50;2.30;;;14.30;99.90;;;;;;5095882;28;20474;-71
2021/10/06 08:23:10;;;;;;;5.87;2.60;;;14.30;99.90;;;;;;5095689;28;20496;-71
2021/10/06 08:25:37;;;;;;;4.17;2.40;;;14.30;99.90;;;;;;5095834;28;20792;-71
2021/10/06 08:28:04;;;;;;;2.60;1.90;;;14.30;99.90;;;;;;5096033;28;20457;-71
2021/10/06 08:30:31;;;;;;;4.10;1.80;;;14.30;99.90;;;;;;5096076;28;20810;-71
2021/10/06 08:32:59;;;;;;;4.33;2.10;;;14.40;99.90;;;;;;5095732;28;20464;-71
2021/10/06 08:35:26;;;;;;;3.57;1.80;;;14.40;99.90;;;;;;5095847;28;20471;-71
2021/10/06 08:37:53;;;;;;;3.13;1.67;;;14.40;99.90;;;;;;5095695;28;20456;-71
2021/10/06 08:40:19;;;;;;;4.00;1.97;;;14.50;99.90;;;;;;5095707;28;20496;-71
2021/10/06 08:42:47;;;;;;;3.77;1.47;;;14.50;99.90;;;;;;5095606;28;20810;-71
2021/10/06 08:45:14;;;;;;;2.30;1.70;;;14.60;99.90;;;;;;5095107;28;20511;-71
2021/10/06 08:47:42;;;;;;;2.07;1.40;;;14.60;99.90;;;;;;5095490;28;20482;-71
2021/10/06 08:50:12;;;;;;;4.93;1.77;;;14.60;99.90;;;;;;5095368;28;20463;-71
2021/10/06 08:52:39;;;;;;;2.37;1.20;;;14.60;99.90;;;;;;5095323;28;20450;-71
2021/10/06 08:55:10;;;;;;;3.40;1.50;;;14.70;99.90;;;;;;5094812;28;20468;-71
2021/10/06 08:57:37;;;;;;;2.43;1.50;;;14.70;99.90;;;;;;5095543;28;20533;-71
2021/10/06 09:00:05;;;;;;;4.07;1.80;;;14.70;99.90;;;;;;5095274;28;20518;-71
2021/10/06 09:02:38;;;;;;;4.20;1.50;;;14.80;99.90;;;;;;5095444;28;20777;-71
2021/10/06 09:05:05;;;;;;;3.00;1.60;;;14.80;99.90;;;;;;5095371;28;20444;-71
2021/10/06 09:07:33;;;;;;;3.17;1.37;;;14.90;99.90;;;;;;5095337;28;20533;-71
2021/10/06 09:10:14;;;;;;;3.23;1.47;;;15.00;99.90;;;;;;5095110;28;20469;-71
2021/10/06 09:12:53;;;;;;;3.83;1.47;;;15.10;99.90;;;;;;5094402;28;20441;-71
2021/10/06 09:15:20;;;;;;;4.20;1.37;;;15.10;99.90;;;;;;5095309;28;20445;-71
2021/10/06 09:17:52;;;;;;;4.67;1.10;;;15.20;99.90;;;;;;5094631;28;20453;-72
2021/10/06 09:20:19;;;;;;;2.90;1.50;;;15.30;99.90;;;;;;5095052;28;20477;-71
2021/10/06 09:23:00;;;;;;;2.33;1.20;;;15.30;99.90;;;;;;5094874;28;20485;-70
2021/10/06 09:25:36;;;;;;;4.50;1.63;;;15.40;99.90;;;;;;5095106;28;20556;-74
2021/10/06 09:28:07;;;;;;;4.53;1.40;;;15.40;99.90;;;;;;5094992;28;20567;-70
2021/10/06 09:30:34;;;;;;;2.70;1.40;;;15.40;99.90;;;;;;5094625;28;20745;-72
2021/10/06 09:33:04;;;;;;;2.53;1.10;;;15.40;99.90;;;;;;5094599;28;20907;-72
2021/10/06 09:35:31;;;;;;;2.83;1.20;;;15.40;99.90;;;;;;5094699;28;20533;-72
2021/10/06 09:37:59;;;;;;;1.73;1.00;;;15.40;99.90;;;;;;5095520;28;20475;-72
2021/10/06 09:40:28;;;;;;;3.30;1.17;;;15.40;99.90;;;;;;5094966;28;20478;-72
2021/10/06 09:42:56;;;;;;;2.33;1.10;;;15.50;99.90;;;;;;5094985;28;20453;-72
2021/10/06 09:45:26;;;;;;;2.53;1.07;;;15.50;99.90;;;;;;5094620;28;20518;-72
2021/10/06 09:48:06;;;;;;;4.30;1.10;;;15.50;99.90;;;;;;5094635;28;20468;-72
2021/10/06 09:50:38;;;;;;;4.70;1.27;;;15.60;99.90;;;;;;5095268;28;20434;-72
2021/10/06 09:53:12;;;;;;;1.73;1.07;;;15.70;99.90;;;;;;5094959;28;20741;-72
2021/10/06 09:55:39;;;;;;;2.13;1.20;;;15.70;99.90;;;;;;5094925;28;20622;-72
2021/10/06 09:58:07;;;;;;;3.53;1.10;;;15.70;99.90;;;;;;5095595;28;20511;-72
2021/10/06 10:00:34;;;;;;;6.70;1.20;;;15.80;99.90;;;;;;5095649;28;20477;-72
2021/10/06 10:03:02;;;;;;;2.60;1.20;;;15.90;99.90;;;;;;5094190;28;20481;-72
2021/10/06 10:05:28;;;;;;;2.60;1.27;;;16.10;99.90;;;;;;5094740;28;20476;-71
2021/10/06 10:07:55;;;;;;;1.80;1.07;;;16.20;99.90;;;;;;5094967;28;20503;-71
2021/10/06 10:10:24;;;;;;;2.20;1.07;;;16.20;99.90;;;;;;5094383;28;20799;-71
2021/10/06 10:12:50;;;;;;;1.70;1.23;;;16.30;99.90;;;;;;5094009;28;20458;-71
2021/10/06 10:15:19;;;;;;;2.10;1.30;;;16.30;99.90;;;;;;5095375;28;20483;-71
2021/10/06 10:17:47;;;;;;;1.40;1.27;;;16.40;99.90;;;;;;5098316;28;20492;-71
2021/10/06 10:20:16;;;;;;;3.87;1.43;;;16.40;99.90;;;;;;5097951;28;20536;-71
2021/10/06 10:22:45;;;;;;;3.23;1.20;;;16.40;99.90;;;;;;5097694;28;20540;-71
2021/10/06 10:25:26;;;;;;;2.83;1.43;;;16.40;99.90;;;;;;5097655;28;20879;-71
2021/10/06 10:28:01;;;;;;;2.50;1.10;;;16.50;99.90;;;;;;5097906;28;20819;-70
2021/10/06 10:30:28;;;;;;;2.73;1.13;;;16.60;99.90;;;;;;5097799;28;20523;-70
2021/10/06 10:32:55;;;;;;;4.03;1.20;;;16.60;99.90;;;;;;5098098;28;20453;-70
2021/10/06 10:35:38;;;;;;;2.50;0.97;;;16.70;99.90;;;;;;5097329;28;20474;-70
2021/10/06 10:38:07;;;;;;;2.40;1.00;;;16.70;99.90;;;;;;5098275;28;20556;-70
2021/10/06 10:40:37;;;;;;;4.87;1.23;;;16.80;99.90;;;;;;5097826;28;20934;-71
2021/10/06 10:43:11;;;;;;;1.63;1.03;;;16.90;99.90;;;;;;5097563;28;20530;-71
2021/10/06 10:45:43;;;;;;;2.63;1.20;;;16.90;99.90;;;;;;5098137;28;20521;-70
2021/10/06 10:48:13;;;;;;;2.70;1.00;;;17.20;99.90;;;;;;5098270;28;20458;-71
2021/10/06 10:51:01;;;;;;;2.90;1.63;;;17.40;99.90;;;;;;5097794;28;20785;-71
2021/10/06 10:54:01;;;;;;;1.63;0.90;;;17.50;99.90;;;;;;5097928;28;20461;-72
2021/10/06 10:56:43;;;;;;;3.37;1.20;;;17.60;99.90;;;;;;5096913;28;20888;-72
2021/10/06 10:59:12;;;;;;;3.77;1.20;;;17.70;99.90;;;;;;5097933;28;20437;-71
2021/10/06 11:01:46;;;;;;;2.30;1.33;;;17.50;99.90;;;;;;5096998;28;20970;-72
2021/10/06 11:04:19;;;;;;;4.67;1.40;;;17.30;99.90;;;;;;5097762;28;20460;-72
2021/10/06 11:06:48;;;;;;;4.13;1.10;;;17.20;99.90;;;;;;5097601;28;20445;-72
2021/10/06 11:09:38;;;;;;;1.67;1.07;;;17.00;99.90;;;;;;5096989;28;20469;-72
2021/10/06 11:12:42;;;;;;;2.17;0.90;;;17.00;99.90;;;;;;5097085;28;20476;-71
2021/10/06 11:15:29;;;;;;;2.47;1.20;;;17.00;99.90;;;;;;5034946;28;20466;-71
2021/10/06 11:18:25;;;;;;;1.87;1.13;;;17.00;99.90;;;;;;5034951;28;20441;-71
2021/10/06 11:21:02;;;;;;;2.40;1.37;;;16.90;99.90;;;;;;5083361;28;20485;-71
2021/10/06 11:23:43;;;;;;;5.17;1.53;;;16.90;99.90;;;;;;5101392;28;20485;-72
2021/10/06 11:26:13;;;;;;;3.67;1.03;;;16.90;99.90;;;;;;5098184;28;20434;-71
2021/10/06 11:28:41;;;;;;;3.63;1.80;;;17.00;99.90;;;;;;5096641;28;20484;-71
2021/10/06 11:31:10;;;;;;;1.87;1.00;;;17.10;99.90;;;;;;5096886;28;20465;-71
2021/10/06 11:33:37;;;;;;;2.03;0.80;;;17.10;99.90;;;;;;5097141;28;20446;-71
2021/10/06 11:36:13;;;;;;;1.90;0.90;;;17.10;99.90;;;;;;5096889;28;20462;-71
2021/10/06 11:38:42;;;;;;;2.20;1.40;;;17.10;99.90;;;;;;5096462;28;20850;-71
2021/10/06 11:41:10;;;;;;;2.47;0.90;;;17.10;99.90;;;;;;5096310;28;20504;-70
2021/10/06 11:43:41;;;;;;;1.60;0.97;;;17.10;99.90;;;;;;5096985;28;20458;-71
2021/10/06 11:46:13;;;;;;;3.27;1.20;;;17.20;99.90;;;;;;5096673;28;20458;-71
2021/10/06 11:48:40;;;;;;;2.53;1.10;;;17.30;99.90;;;;;;5096100;28;20435;-71
2021/10/06 11:51:06;;;;;;;1.80;1.20;;;17.40;99.90;;;;;;5096574;28;20450;-71
2021/10/06 11:53:44;;;;;;;1.77;1.37;;;17.50;99.90;;;;;;5096399;28;20461;-71
2021/10/06 11:56:22;;;;;;;1.50;1.10;;;17.50;99.90;;;;;;5096198;28;20438;-71
2021/10/06 11:58:49;;;;;;;1.87;1.20;;;17.40;99.90;;;;;;5096725;28;20449;-71
2021/10/06 12:01:17;;;;;;;2.53;1.00;;;17.30;99.90;;;;;;5095806;28;20811;-71
2021/10/06 12:03:44;;;;;;;2.43;0.93;;;17.20;99.90;;;;;;5096240;28;20469;-71
2021/10/06 12:06:12;;;;;;;5.10;1.30;;;17.20;99.90;;;;;;5096347;28;20469;-70
2021/10/06 12:08:40;;;;;;;2.10;1.10;;;17.30;99.90;;;;;;5095804;28;20453;-70
2021/10/06 12:11:08;;;;;;;1.90;1.20;;;17.50;99.90;;;;;;5095978;28;20450;-71
2021/10/06 12:13:38;;;;;;;4.20;1.17;;;17.60;99.90;;;;;;5096011;28;20549;-71
2021/10/06 12:16:36;;;;;;;1.93;1.00;;;17.70;99.90;;;;;;5095928;28;20494;-71
2021/10/06 12:19:04;;;;;;;2.20;1.00;;;18.00;99.90;;;;;;5033882;28;20471;-71
2021/10/06 12:21:32;;;;;;;2.77;0.97;;;18.10;99.90;;;;;;5081784;28;20553;-71
2021/10/06 12:24:02;;;;;;;2.63;1.23;;;18.50;99.90;;;;;;5095644;28;20442;-71
2021/10/06 12:26:33;;;;;;;2.60;1.20;;;18.90;99.90;;;;;;5095833;28;20899;-71
2021/10/06 12:29:06;;;;;;;5.63;1.70;;;19.20;99.90;;;;;;5096087;28;20467;-71
2021/10/06 12:31:34;;;;;;;2.43;1.10;;;19.20;99.90;;;;;;5095926;28;20446;-71
2021/10/06 12:34:10;;;;;;;1.73;1.00;;;19.10;99.90;;;;;;5095438;28;20466;-71
2021/10/06 12:36:44;;;;;;;2.60;1.20;;;18.90;99.90;;;;;;5095541;28;20453;-71
2021/10/06 12:39:17;;;;;;;4.10;1.50;;;18.70;99.90;;;;;;5095277;28;20440;-71
2021/10/06 12:41:51;;;;;;;2.30;0.90;;;18.60;99.90;;;;;;5095254;28;20799;-71
2021/10/06 12:44:25;;;;;;;4.30;1.70;;;18.40;99.90;;;;;;5095434;28;20481;-70
2021/10/06 12:46:53;;;;;;;2.97;1.17;;;18.30;99.90;;;;;;5095539;28;20774;-70
2021/10/06 12:49:22;;;;;;;3.90;1.10;;;18.30;99.90;;;;;;5095619;28;20481;-69
2021/10/06 12:51:58;;;;;;;3.27;1.40;;;18.20;99.90;;;;;;5094892;28;20454;-71
2021/10/06 12:54:26;;;;;;;8.00;1.90;;;18.10;99.90;;;;;;5095593;28;20470;-71